• Join FlightAware (Why Join?)
  • Login
  • US Flag 
10:52AM EST


 

Airport Tracker/Info


-or-


 

Live Flight TrackerFlight Track Log ✈ SWA850 ✈ 31-Jul-2014 ✈ KLAX - KOAK

Flight Track Log - Related Links

Times and Time Zones

All times are in EDT time to prevent confusion due to time zone crossing. See the SWA850 flight status page for this flight to view local times or setup timezone preferences in your user account.

Time Position Orientation Groundspeed Altitude Reporting Facility
EDT Latitude Longitude Course Direction KTS MPH feet Rate Location/Type
06:33PM 33.9500 -118.4500 270° West 147 169 1,400  Level Southern California TRACON
06:34PM 33.9500 -118.5167 270° West 246 283 3,600 3,060 Climbing Southern California TRACON
06:35PM 33.9333 -118.6000 256° West 283 326 7,300 3,480 Climbing Southern California TRACON
06:36PM 33.9408 -118.6442 282° West 286 329 8,800 1,080 Climbing Los Angeles Center
06:37PM 34.0197 -118.6711 344° North 302 348 9,000 60 Climbing Los Angeles Center
06:38PM 34.0964 -118.6594 North 300 345 9,000 960 Level Los Angeles Center
06:39PM 34.1761 -118.6306 17° North 303 349 11,000 2,280 Climbing Los Angeles Center
06:40PM 34.2775 -118.6672 343° North 316 364 13,800 2,460 Climbing Los Angeles Center
06:41PM 34.3653 -118.6994 343° North 327 376 16,200 2,160 Climbing Los Angeles Center
06:42PM 34.4747 -118.7392 343° North 406 467 18,400 2,400 Climbing Los Angeles Center
06:43PM 34.5856 -118.7808 343° North 415 478 21,200 2,460 Climbing Los Angeles Center
06:44PM 34.7011 -118.8258 342° North 429 494 23,500 2,160 Climbing Los Angeles Center
06:45PM 34.8186 -118.8811 339° North 453 521 25,700 2,220 Climbing Los Angeles Center
06:46PM 34.9406 -118.9972 322° Northwest 462 532 28,200 2,520 Climbing Los Angeles Center
06:47PM 35.0408 -119.0953 321° Northwest 463 533 31,000 2,520 Climbing Los Angeles Center
06:48PM 35.1428 -119.1894 323° Northwest 461 531 33,500 1,980 Climbing Los Angeles Center
06:49PM 35.2381 -119.2853 321° Northwest 453 521 35,200 1,200 Climbing Los Angeles Center
06:50PM 35.3367 -119.3825 321° Northwest 453 521 36,000 360 Climbing Los Angeles Center
06:51PM 35.4558 -119.5000 321° Northwest 457 526 36,000  Level Los Angeles Center
06:52PM 35.5531 -119.5975 321° Northwest 457 526 36,000  Level Los Angeles Center
06:53PM 35.6494 -119.6936 321° Northwest 455 524 36,000  Level Los Angeles Center
06:54PM 35.7064 -119.7506 321° Northwest 455 524 36,000  Level Oakland Center
06:55PM 35.8028 -119.8472 321° Northwest 455 524 36,000  Level Oakland Center
06:56PM 35.8989 -119.9453 320° Northwest 454 522 36,000 -360 Level Oakland Center
06:57PM 36.0136 -120.0600 321° Northwest 447 514 35,300 -840 Descending Oakland Center
06:58PM 36.1100 -120.1578 321° Northwest 448 516 34,400 -960 Descending Oakland Center
06:59PM 36.2072 -120.2569 321° Northwest 453 521 33,400 -960 Descending Oakland Center
07:01PM 36.3950 -120.4500 320° Northwest 440 506 31,500 -960 Descending Oakland Center
07:02PM 36.4922 -120.5514 320° Northwest 451 519 30,500 -1,020 Descending Oakland Center
07:03PM 36.5900 -120.6508 321° Northwest 454 522 29,500 -1,740 Descending Oakland Center
07:04PM 36.7019 -120.7697 320° Northwest 447 514 27,000 -2,460 Descending Oakland Center
07:05PM 36.7892 -120.8642 319° Northwest 423 487 24,500 -2,340 Descending Oakland Center
07:07PM 36.9500 -121.0500 317° Northwest 399 459 19,800 -2,340 Descending Oakland Center
07:08PM 37.0294 -121.1411 318° Northwest 394 453 17,400 -2,280 Descending Oakland Center
07:09PM 37.1058 -121.2278 318° Northwest 375 432 15,100 -2,520 Descending Oakland Center
07:10PM 37.1953 -121.3319 317° Northwest 368 423 12,300 -2,460 Descending Oakland Center
07:11PM 37.2664 -121.4133 318° Northwest 354 407 10,100 -1,500 Descending Oakland Center
07:12PM 37.3306 -121.4894 317° Northwest 327 376 9,200 -1,080 Descending Oakland Center
07:13PM 37.3919 -121.5606 317° Northwest 294 338 8,000 -1,140 Descending Oakland Center
07:14PM 37.4492 -121.6267 317° Northwest 285 328 6,900 -600 Descending Oakland Center
07:15PM 37.4833 -121.7167 296° West 260 299 6,800 -480 Descending Northern Cal TRACON
07:16PM 37.5167 -121.8000 297° West 259 298 6,000 -420 Descending Northern Cal TRACON
07:17PM 37.5500 -121.8667 302° West 253 291 6,000 -480 Level Northern Cal TRACON
07:18PM 37.5667 -121.9500 284° West 246 283 5,100 -1,140 Descending Northern Cal TRACON
07:19PM 37.6000 -122.0333 297° West 237 273 3,800 -1,320 Descending Northern Cal TRACON
07:20PM 37.6167 -122.1000 288° West 213 245 2,500 -1,200 Descending Northern Cal TRACON
07:21PM 37.6500 -122.1500 310° West 163 188 1,500 -900 Descending Northern Cal TRACON
07:22PM 37.6833 -122.1833 322° Northwest 127 146 800 -720 Descending Northern Cal TRACON
07:26PM 37.7167 -122.2167 270° West  Level FlightAware Approximate